Time;durP1;ratioP1;P1;durP2;ratioP2;P2;SDS_P1;SDS_P2;PMS_P1;PMS_P2;Temp;Humidity;BMP_temperature;BMP_pressure;BME280_temperature;BME280_humidity;BME280_pressure;Samples;Min_cycle;Max_cycle;Signal;HPM_P1;HPM_P2
2021/08/08 00:01:06;;;;;;;;;;;16.70;75.60;;;;;;5053693;28;19925;-73
2021/08/08 00:03:33;;;;;;;;;;;16.70;75.70;;;;;;5053611;28;20016;-73
2021/08/08 00:06:02;;;;;;;;;;;16.70;75.90;;;;;;5053948;28;19925;-73
2021/08/08 00:08:31;;;;;;;;;;;16.70;75.90;;;;;;5053488;28;19925;-73
2021/08/08 00:10:59;;;;;;;;;;;16.60;76.00;;;;;;5053320;28;19986;-73
2021/08/08 00:13:27;;;;;;;;;;;16.70;76.10;;;;;;5053193;28;19987;-73
2021/08/08 00:15:55;;;;;;;;;;;16.60;76.20;;;;;;5053365;28;19929;-73
2021/08/08 00:18:22;;;;;;;;;;;16.60;76.30;;;;;;5053663;28;19975;-73
2021/08/08 00:20:52;;;;;;;;;;;16.60;76.50;;;;;;5053410;28;19929;-73
2021/08/08 00:23:22;;;;;;;;;;;16.60;76.60;;;;;;5053513;28;20392;-73
2021/08/08 00:25:50;;;;;;;;;;;16.60;76.60;;;;;;5053079;28;19925;-73
2021/08/08 00:28:19;;;;;;;;;;;16.60;76.70;;;;;;5035828;28;19928;-73
2021/08/08 00:30:46;;;;;;;;;;;16.50;76.70;;;;;;5052880;28;20089;-73
2021/08/08 00:33:13;;;;;;;;;;;16.60;76.70;;;;;;5052902;28;20274;-73
2021/08/08 00:35:42;;;;;;;;;;;16.50;76.70;;;;;;5053178;28;19932;-73
2021/08/08 00:38:09;;;;;;;;;;;16.50;76.80;;;;;;5053121;28;20011;-73
2021/08/08 00:40:36;;;;;;;;;;;16.50;76.90;;;;;;5052878;28;19925;-73
2021/08/08 00:43:03;;;;;;;;;;;16.50;76.90;;;;;;5053091;28;19931;-73
2021/08/08 00:45:31;;;;;;;;;;;16.50;77.00;;;;;;5035135;28;19961;-73
2021/08/08 00:47:59;;;;;;;;;;;16.50;77.00;;;;;;5053078;28;19925;-73
2021/08/08 00:50:27;;;;;;;;;;;16.50;77.00;;;;;;5053164;28;19999;-73
2021/08/08 00:52:58;;;;;;;;;;;16.50;77.20;;;;;;5053009;28;20388;-73
2021/08/08 00:55:25;;;;;;;;;;;16.40;77.20;;;;;;5052700;28;20667;-73
2021/08/08 00:57:55;;;;;;;;;;;16.40;77.20;;;;;;5052749;28;19928;-73
2021/08/08 01:00:22;;;;;;;;;;;16.40;77.40;;;;;;5035135;28;20043;-73
2021/08/08 01:02:55;;;;;;;;;;;16.40;77.40;;;;;;5052651;28;20272;-73
2021/08/08 01:05:26;;;;;;;;;;;16.40;77.40;;;;;;5052735;28;19925;-73
2021/08/08 01:08:04;;;;;;;;;;;16.40;77.30;;;;;;5052121;28;19925;-73
2021/08/08 01:10:34;;;;;;;;;;;16.40;77.20;;;;;;5052411;28;20365;-73
2021/08/08 01:13:08;;;;;;;;;;;16.40;77.20;;;;;;5034915;28;19947;-73
2021/08/08 01:15:38;;;;;;;;;;;16.40;77.30;;;;;;5052623;28;19925;-73
2021/08/08 01:18:26;;;;;;;;;;;16.40;77.30;;;;;;5051807;28;19924;-73
2021/08/08 01:20:58;;;;;;;;;;;16.40;77.40;;;;;;5052702;28;20304;-73
2021/08/08 01:23:31;;;;;;;;;;;16.30;77.40;;;;;;5052473;28;20319;-73
2021/08/08 01:26:03;;;;;;;;;;;16.40;77.40;;;;;;5052404;28;19935;-73
2021/08/08 01:28:40;;;;;;;;;;;16.40;77.50;;;;;;5052667;28;20019;-73
2021/08/08 01:31:11;;;;;;;;;;;16.30;77.60;;;;;;5052138;28;20348;-73
2021/08/08 01:33:43;;;;;;;;;;;16.30;77.70;;;;;;5052814;28;19925;-73
2021/08/08 01:36:14;;;;;;;;;;;16.30;77.70;;;;;;5052349;28;19951;-73
2021/08/08 01:38:52;;;;;;;;;;;16.30;77.80;;;;;;5052219;28;19928;-73
2021/08/08 01:41:27;;;;;;;;;;;16.30;77.70;;;;;;5052047;28;19943;-73
2021/08/08 01:44:11;;;;;;;;;;;16.30;77.70;;;;;;5052282;28;19968;-73
2021/08/08 01:46:43;;;;;;;;;;;16.30;77.70;;;;;;5052452;28;19925;-74
2021/08/08 01:49:17;;;;;;;;;;;16.30;77.60;;;;;;5052081;28;19925;-73
2021/08/08 01:51:45;;;;;;;;;;;16.30;77.70;;;;;;5051679;28;20301;-74
2021/08/08 01:54:12;;;;;;;;;;;16.30;77.60;;;;;;5052585;28;20008;-74
2021/08/08 01:56:40;;;;;;;;;;;16.30;77.70;;;;;;5052344;28;19925;-74
2021/08/08 01:59:07;;;;;;;;;;;16.30;77.60;;;;;;5052363;28;19924;-74
2021/08/08 02:01:34;;;;;;;;;;;16.30;77.60;;;;;;5051865;28;19931;-74
2021/08/08 02:04:01;;;;;;;;;;;16.30;77.60;;;;;;5051838;28;20011;-74
2021/08/08 02:06:29;;;;;;;;;;;16.30;77.70;;;;;;5051962;28;20023;-74
2021/08/08 02:08:56;;;;;;;;;;;16.20;77.70;;;;;;5052308;28;19960;-74
2021/08/08 02:11:24;;;;;;;;;;;16.20;77.80;;;;;;5051704;28;20282;-73
2021/08/08 02:13:52;;;;;;;;;;;16.20;77.80;;;;;;5051762;28;20019;-74
2021/08/08 02:16:20;;;;;;;;;;;16.20;77.90;;;;;;5051881;28;19983;-73
2021/08/08 02:18:47;;;;;;;;;;;16.20;77.90;;;;;;5051634;28;19924;-74
2021/08/08 02:21:14;;;;;;;;;;;16.20;78.00;;;;;;5054430;28;19924;-74
2021/08/08 02:23:41;;;;;;;;;;;16.20;78.00;;;;;;5055907;28;20324;-73
2021/08/08 02:26:09;;;;;;;;;;;16.20;78.10;;;;;;5055708;28;19955;-74
2021/08/08 02:28:37;;;;;;;;;;;16.20;78.10;;;;;;5055658;28;19924;-74
2021/08/08 02:31:04;;;;;;;;;;;16.20;78.10;;;;;;5055241;28;19925;-74
2021/08/08 02:33:32;;;;;;;;;;;16.20;78.10;;;;;;5054009;28;19932;-74
2021/08/08 02:35:58;;;;;;;;;;;16.20;78.20;;;;;;5055048;28;19925;-74
2021/08/08 02:38:28;;;;;;;;;;;16.10;78.20;;;;;;5055294;28;20292;-74
2021/08/08 02:40:56;;;;;;;;;;;16.10;78.20;;;;;;5055494;28;19924;-74
2021/08/08 02:43:23;;;;;;;;;;;16.10;78.30;;;;;;5054926;28;20012;-71
2021/08/08 02:45:52;;;;;;;;;;;16.10;78.40;;;;;;5037857;28;20672;-74
2021/08/08 02:48:19;;;;;;;;;;;16.10;78.50;;;;;;5055202;28;19977;-74
2021/08/08 02:50:47;;;;;;;;;;;16.10;78.50;;;;;;5054749;28;19928;-74
2021/08/08 02:53:15;;;;;;;;;;;16.10;78.60;;;;;;5055072;28;19929;-74
2021/08/08 02:55:43;;;;;;;;;;;16.10;78.60;;;;;;5055027;28;19925;-74
2021/08/08 02:58:11;;;;;;;;;;;16.10;78.70;;;;;;5054976;28;19925;-74
2021/08/08 03:00:39;;;;;;;;;;;16.00;78.70;;;;;;5054328;28;19925;-74
2021/08/08 03:03:22;;;;;;;;;;;16.00;78.70;;;;;;5054942;28;20399;-74
2021/08/08 03:06:11;;;;;;;;;;;16.00;78.70;;;;;;5044255;28;19932;-74
2021/08/08 03:08:47;;;;;;;;;;;16.00;78.80;;;;;;5054117;28;19925;-74
2021/08/08 03:11:25;;;;;;;;;;;16.00;78.80;;;;;;5054587;28;20586;-74
2021/08/08 03:14:03;;;;;;;;;;;16.00;78.70;;;;;;5054264;28;19932;-74
2021/08/08 03:16:40;;;;;;;;;;;16.00;78.70;;;;;;5054328;28;19924;-74
2021/08/08 03:19:13;;;;;;;;;;;16.00;79.60;;;;;;5053976;28;20008;-74
2021/08/08 03:21:56;;;;;;;;;;;16.00;78.70;;;;;;5038314;28;20221;-74
2021/08/08 03:24:35;;;;;;;;;;;16.00;78.70;;;;;;5054536;28;19970;-74
2021/08/08 03:27:17;;;;;;;;;;;16.00;79.70;;;;;;5054523;28;19947;-74
2021/08/08 03:29:55;;;;;;;;;;;16.00;78.70;;;;;;5054510;28;19925;-74
2021/08/08 03:32:24;;;;;;;;;;;16.00;78.70;;;;;;5054298;28;20364;-74
2021/08/08 03:35:19;;;;;;;;;;;16.00;78.70;;;;;;5054072;28;20047;-74
2021/08/08 03:38:07;;;;;;;;;;;16.00;78.80;;;;;;5053658;28;20372;-74
2021/08/08 03:40:40;;;;;;;;;;;15.90;78.70;;;;;;5054362;28;19928;-74
2021/08/08 03:43:37;;;;;;;;;;;15.90;78.70;;;;;;5053070;28;19931;-74
2021/08/08 03:46:31;;;;;;;;;;;15.90;78.70;;;;;;5053421;28;20411;-74
2021/08/08 03:49:04;;;;;;;;;;;15.90;78.90;;;;;;5035926;28;20364;-74
2021/08/08 03:51:58;;;;;;;;;;;15.80;79.00;;;;;;5053666;28;20383;-74
2021/08/08 03:54:46;;;;;;;;;;;15.80;79.20;;;;;;5051475;28;19944;-74
2021/08/08 03:57:32;;;;;;;;;;;15.80;79.20;;;;;;5054013;28;19939;-74
2021/08/08 04:00:27;;;;;;;;;;;15.80;79.30;;;;;;5053993;28;19924;-74
2021/08/08 04:03:22;;;;;;;;;;;15.80;79.30;;;;;;5053238;28;19919;-74
2021/08/08 04:06:11;;;;;;;;;;;15.80;79.30;;;;;;5051161;28;19936;-73
2021/08/08 04:08:40;;;;;;;;;;;15.80;79.50;;;;;;5053445;28;19928;-74
2021/08/08 04:11:35;;;;;;;;;;;15.80;79.40;;;;;;5053849;28;19940;-74
2021/08/08 04:14:09;;;;;;;;;;;15.80;79.40;;;;;;5053535;28;19925;-73
2021/08/08 04:16:58;;;;;;;;;;;15.80;79.40;;;;;;5050668;28;19972;-74
2021/08/08 04:23:55;;;;;;;;;;;15.80;79.30;;;;;;5049893;28;19923;-74
2021/08/08 04:26:52;;;;;;;;;;;15.80;79.40;;;;;;5033034;28;19964;-74
2021/08/08 04:29:43;;;;;;;;;;;15.70;79.60;;;;;;5022547;28;19932;-74
2021/08/08 04:32:31;;;;;;;;;;;15.70;79.70;;;;;;5032217;28;19951;-74
2021/08/08 04:35:26;;;;;;;;;;;15.70;79.70;;;;;;5033037;28;19924;-74
2021/08/08 04:38:21;;;;;;;;;;;15.70;79.60;;;;;;5023755;28;19924;-74
2021/08/08 04:41:15;;;;;;;;;;;15.70;79.50;;;;;;5019382;28;20047;-75
2021/08/08 04:44:06;;;;;;;;;;;15.70;79.40;;;;;;5032171;28;20012;-74
2021/08/08 04:47:03;;;;;;;;;;;15.70;79.30;;;;;;5021134;28;19932;-74
2021/08/08 04:49:54;;;;;;;;;;;15.70;79.20;;;;;;5032605;28;19979;-74
2021/08/08 04:52:33;;;;;;;;;;;15.70;79.20;;;;;;5032019;28;19929;-74
2021/08/08 04:55:27;;;;;;;;;;;15.70;79.20;;;;;;5033106;28;20450;-74
2021/08/08 04:58:23;;;;;;;;;;;15.50;79.50;;;;;;5030502;28;19925;-74
2021/08/08 05:01:13;;;;;;;;;;;15.50;79.90;;;;;;5031437;28;19932;-74
2021/08/08 05:03:57;;;;;;;;;;;15.50;80.10;;;;;;5021888;28;19935;-74
2021/08/08 05:06:52;;;;;;;;;;;15.40;80.20;;;;;;5032809;28;19948;-74
2021/08/08 05:09:41;;;;;;;;;;;15.40;80.30;;;;;;5032763;28;19929;-74
2021/08/08 05:12:37;;;;;;;;;;;15.40;80.20;;;;;;5021419;28;20384;-74
2021/08/08 05:15:31;;;;;;;;;;;15.40;80.20;;;;;;5019898;28;19924;-74
2021/08/08 05:18:14;;;;;;;;;;;15.30;80.30;;;;;;5031765;28;20344;-74
2021/08/08 05:21:08;;;;;;;;;;;15.30;80.70;;;;;;5032635;28;19919;-74
2021/08/08 05:23:57;;;;;;;;;;;15.20;80.70;;;;;;5032745;28;20388;-74
2021/08/08 05:26:48;;;;;;;;;;;15.20;80.70;;;;;;5052129;28;19987;-74
2021/08/08 05:29:35;;;;;;;;;;;15.20;80.80;;;;;;5052143;28;19929;-74
2021/08/08 05:32:24;;;;;;;;;;;15.30;80.70;;;;;;5052013;28;19929;-74
2021/08/08 05:35:18;;;;;;;;;;;15.30;80.50;;;;;;5052251;28;19919;-74
2021/08/08 05:38:03;;;;;;;;;;;15.40;80.20;;;;;;5052110;28;20007;-74
2021/08/08 05:40:58;;;;;;;;;;;15.40;80.00;;;;;;5052252;28;20399;-74
2021/08/08 05:43:41;;;;;;;;;;;15.40;79.70;;;;;;5052351;28;20300;-75
2021/08/08 05:46:35;;;;;;;;;;;15.50;79.60;;;;;;5052314;28;20488;-74
2021/08/08 05:49:25;;;;;;;;;;;15.50;79.30;;;;;;5051828;28;20008;-74
2021/08/08 05:52:18;;;;;;;;;;;15.50;79.20;;;;;;5051949;28;19932;-74
2021/08/08 05:55:06;;;;;;;;;;;15.50;80.10;;;;;;5052067;28;19924;-74
2021/08/08 05:58:09;;;;;;;;;;;15.60;79.20;;;;;;5054875;28;19950;-74
2021/08/08 06:00:59;;;;;;;;;;;15.60;79.00;;;;;;5045686;28;20296;-74
2021/08/08 06:03:47;;;;;;;;;;;15.60;78.90;;;;;;5055523;28;20296;-74
2021/08/08 06:06:36;;;;;;;;;;;15.70;78.90;;;;;;5055529;28;19925;-74
2021/08/08 06:09:23;;;;;;;;;;;15.70;78.80;;;;;;5055451;28;20377;-74
2021/08/08 06:12:17;;;;;;;;;;;15.70;78.70;;;;;;5054490;28;19932;-74
2021/08/08 06:15:05;;;;;;;;;;;15.70;78.60;;;;;;5055655;28;20015;-74
2021/08/08 06:17:59;;;;;;;;;;;15.80;78.60;;;;;;5055743;28;20055;-74
2021/08/08 06:20:31;;;;;;;;;;;15.80;78.50;;;;;;5055756;28;19924;-74
2021/08/08 06:23:10;;;;;;;;;;;15.80;78.60;;;;;;5055545;28;20380;-75
2021/08/08 06:25:38;;;;;;;;;;;15.80;78.60;;;;;;5055306;28;19960;-74
2021/08/08 06:28:07;;;;;;;;;;;15.80;78.70;;;;;;5055296;28;19936;-75
2021/08/08 06:30:35;;;;;;;;;;;15.90;78.60;;;;;;5055288;28;19947;-74
2021/08/08 06:33:04;;;;;;;;;;;15.90;78.40;;;;;;5055608;28;19932;-74
2021/08/08 06:35:34;;;;;;;;;;;15.90;78.20;;;;;;5055317;28;19972;-75
2021/08/08 06:38:01;;;;;;;;;;;16.00;78.10;;;;;;5043184;28;19952;-75
2021/08/08 06:40:28;;;;;;;;;;;16.10;77.90;;;;;;5055426;28;20007;-75
2021/08/08 06:42:58;;;;;;;;;;;16.10;77.80;;;;;;5055407;28;19925;-75
2021/08/08 06:45:27;;;;;;;;;;;16.10;77.60;;;;;;5055225;28;20377;-75
2021/08/08 06:47:59;;;;;;;;;;;16.10;77.60;;;;;;5055295;28;19928;-75
2021/08/08 06:50:25;;;;;;;;;;;16.20;77.50;;;;;;5055026;28;19925;-75
2021/08/08 06:52:51;;;;;;;;;;;16.30;77.40;;;;;;5055486;28;19955;-74
2021/08/08 06:55:20;;;;;;;;;;;16.40;77.50;;;;;;5055045;28;19979;-75
2021/08/08 06:57:47;;;;;;;;;;;16.40;77.10;;;;;;5054934;28;20008;-74
2021/08/08 07:00:14;;;;;;;;;;;16.50;77.40;;;;;;5054851;28;19929;-75
2021/08/08 07:02:40;;;;;;;;;;;16.60;76.20;;;;;;5054922;28;19925;-75
2021/08/08 07:05:06;;;;;;;;;;;16.70;76.10;;;;;;5054686;28;19929;-75
2021/08/08 07:07:33;;;;;;;;;;;16.80;76.00;;;;;;5053907;28;20007;-75
2021/08/08 07:09:59;;;;;;;;;;;16.90;75.50;;;;;;5054592;28;19994;-75
2021/08/08 07:12:25;;;;;;;;;;;17.00;75.30;;;;;;5054722;28;19970;-75
2021/08/08 07:14:52;;;;;;;;;;;17.10;74.70;;;;;;5053905;28;19986;-75
2021/08/08 07:17:18;;;;;;;;;;;17.20;74.40;;;;;;5069207;28;19925;-75
2021/08/08 07:19:44;;;;;;;;;;;17.30;74.30;;;;;;5054123;28;20280;-75
2021/08/08 07:22:10;;;;;;;;;;;17.50;74.10;;;;;;5053824;28;20022;-75
2021/08/08 07:24:36;;;;;;;;;;;17.70;73.30;;;;;;5048210;28;19941;-75
2021/08/08 07:27:03;;;;;;;;;;;17.80;72.80;;;;;;5034028;28;19948;-75
2021/08/08 07:29:29;;;;;;;;;;;18.10;72.20;;;;;;5033478;28;19933;-75
2021/08/08 07:31:55;;;;;;;;;;;18.30;71.60;;;;;;5016003;28;20656;-75
2021/08/08 07:34:22;;;;;;;;;;;18.60;70.60;;;;;;5034681;28;20423;-75
2021/08/08 07:36:48;;;;;;;;;;;19.00;69.70;;;;;;5033359;28;19933;-75
2021/08/08 07:39:14;;;;;;;;;;;19.30;68.90;;;;;;5031280;28;19925;-75
2021/08/08 07:41:41;;;;;;;;;;;19.80;68.20;;;;;;5032946;28;19933;-74
2021/08/08 07:44:07;;;;;;;;;;;20.20;66.70;;;;;;5032746;28;19925;-74
2021/08/08 07:46:33;;;;;;;;;;;20.70;65.60;;;;;;5032310;28;19925;-75
2021/08/08 07:48:59;;;;;;;;;;;21.20;64.30;;;;;;5032311;28;20343;-75
2021/08/08 07:51:26;;;;;;;;;;;21.70;62.70;;;;;;5032629;28;20036;-75
2021/08/08 07:53:53;;;;;;;;;;;22.20;60.80;;;;;;5032084;28;19925;-75
2021/08/08 07:56:19;;;;;;;;;;;22.60;59.30;;;;;;5030582;28;19932;-76
2021/08/08 07:58:45;;;;;;;;;;;22.90;57.20;;;;;;5028402;28;19929;-75
2021/08/08 08:01:12;;;;;;;;;;;22.90;55.80;;;;;;5032609;28;19936;-75
2021/08/08 08:03:38;;;;;;;;;;;23.00;55.70;;;;;;5032638;28;19932;-75
2021/08/08 08:06:04;;;;;;;;;;;23.30;55.50;;;;;;5014101;28;19929;-74
2021/08/08 08:08:30;;;;;;;;;;;23.70;55.00;;;;;;5031839;28;19929;-74
2021/08/08 08:10:56;;;;;;;;;;;24.00;53.20;;;;;;5032231;28;20328;-74
2021/08/08 08:13:23;;;;;;;;;;;24.10;52.60;;;;;;5032017;28;19925;-74
2021/08/08 08:15:49;;;;;;;;;;;23.90;51.10;;;;;;5032172;28;20073;-74
2021/08/08 08:18:16;;;;;;;;;;;23.70;51.60;;;;;;5031078;28;19947;-74
2021/08/08 08:20:42;;;;;;;;;;;23.60;52.60;;;;;;5031910;28;19940;-74
2021/08/08 08:23:09;;;;;;;;;;;23.80;52.60;;;;;;5032217;28;20367;-75
2021/08/08 08:25:35;;;;;;;;;;;24.00;51.70;;;;;;5032232;28;19939;-74
2021/08/08 08:28:03;;;;;;;;;;;24.10;50.90;;;;;;5032466;28;19929;-74
2021/08/08 08:30:29;;;;;;;;;;;24.10;50.70;;;;;;5013752;28;19932;-74
2021/08/08 08:32:55;;;;;;;;;;;24.10;51.10;;;;;;5028468;28;19967;-78
2021/08/08 08:35:22;;;;;;;;;;;24.40;48.90;;;;;;5031859;28;19991;-76
2021/08/08 08:37:49;;;;;;;;;;;24.50;49.00;;;;;;5031382;28;19951;-74
2021/08/08 08:40:15;;;;;;;;;;;24.50;48.20;;;;;;5032442;28;20038;-74
2021/08/08 08:42:49;;;;;;;;;;;24.50;48.30;;;;;;5032006;28;20400;-71
2021/08/08 08:45:16;;;;;;;;;;;24.60;47.80;;;;;;5032567;28;20016;-69
2021/08/08 08:47:44;;;;;;;;;;;24.70;47.50;;;;;;5031629;28;19933;-76
2021/08/08 08:50:11;;;;;;;;;;;24.70;47.90;;;;;;5031726;28;19926;-74
2021/08/08 08:52:38;;;;;;;;;;;24.70;47.90;;;;;;5031137;28;19975;-73
2021/08/08 08:55:05;;;;;;;;;;;24.70;47.90;;;;;;5031539;28;19935;-73
2021/08/08 08:57:31;;;;;;;;;;;24.70;47.30;;;;;;5031416;28;20024;-73
2021/08/08 08:59:58;;;;;;;;;;;24.80;46.00;;;;;;5031221;28;19925;-74
2021/08/08 09:02:24;;;;;;;;;;;24.50;45.90;;;;;;5031517;28;19925;-73
2021/08/08 09:04:51;;;;;;;;;;;24.50;47.20;;;;;;5031691;28;19925;-73
2021/08/08 09:07:17;;;;;;;;;;;24.80;47.10;;;;;;5031119;28;19932;-73
2021/08/08 09:09:43;;;;;;;;;;;25.10;46.20;;;;;;5032009;28;19936;-73
2021/08/08 09:12:09;;;;;;;;;;;25.20;45.40;;;;;;5031758;28;19968;-73
2021/08/08 09:14:36;;;;;;;;;;;25.00;44.50;;;;;;5031630;28;19931;-73
2021/08/08 09:17:02;;;;;;;;;;;24.60;45.40;;;;;;5031448;28;19936;-73
2021/08/08 09:19:30;;;;;;;;;;;24.10;46.30;;;;;;5031633;28;19925;-70
2021/08/08 09:21:56;;;;;;;;;;;23.70;47.20;;;;;;5031132;28;19937;-70
2021/08/08 09:24:22;;;;;;;;;;;23.20;47.90;;;;;;5031586;28;19925;-70
2021/08/08 09:26:58;;;;;;;;;;;22.60;49.50;;;;;;5030730;28;19948;-71
2021/08/08 09:29:24;;;;;;;;;;;22.20;50.60;;;;;;5031976;28;19935;-70
2021/08/08 09:31:50;;;;;;;;;;;21.90;51.90;;;;;;5035833;28;19932;-70
2021/08/08 09:34:23;;;;;;;;;;;21.60;52.20;;;;;;5035523;28;19932;-73
2021/08/08 09:36:49;;;;;;;;;;;21.30;53.10;;;;;;5033704;28;19933;-71
2021/08/08 09:39:29;;;;;;;;;;;21.10;53.10;;;;;;5034931;28;19929;-72
2021/08/08 09:42:08;;;;;;;;;;;21.00;54.60;;;;;;5034461;28;20289;-71
2021/08/08 09:44:35;;;;;;;;;;;21.80;54.90;;;;;;5034821;28;20380;-71
2021/08/08 09:47:01;;;;;;;;;;;22.90;52.70;;;;;;5035218;28;19934;-70
2021/08/08 09:49:28;;;;;;;;;;;24.00;50.00;;;;;;5034544;28;19925;-70
2021/08/08 09:51:54;;;;;;;;;;;24.50;47.20;;;;;;5033808;28;19925;-69
2021/08/08 09:54:21;;;;;;;;;;;24.40;47.00;;;;;;5035709;28;19926;-69
2021/08/08 09:56:57;;;;;;;;;;;24.60;47.90;;;;;;5035310;28;19925;-68
2021/08/08 09:59:24;;;;;;;;;;;24.70;47.20;;;;;;5034967;28;19929;-68
2021/08/08 10:01:50;;;;;;;;;;;24.30;47.30;;;;;;5034396;28;20365;-71
2021/08/08 10:04:16;;;;;;;;;;;23.80;48.00;;;;;;5034628;28;19926;-72
2021/08/08 10:06:43;;;;;;;;;;;23.20;48.30;;;;;;5034268;28;20450;-74
2021/08/08 10:09:13;;;;;;;;;;;22.60;50.90;;;;;;5032779;28;19925;-74
2021/08/08 10:11:43;;;;;;;;;;;22.00;53.20;;;;;;5034578;28;19925;-74
2021/08/08 10:14:10;;;;;;;;;;;21.50;55.10;;;;;;5034360;28;19936;-73
2021/08/08 10:16:39;;;;;;;;;;;21.10;56.70;;;;;;5033884;28;19979;-74
2021/08/08 10:19:07;;;;;;;;;;;21.30;58.80;;;;;;5034145;28;19991;-74
2021/08/08 10:21:33;;;;;;;;;;;22.30;58.50;;;;;;5034994;28;19972;-75
2021/08/08 10:24:04;;;;;;;;;;;23.20;56.50;;;;;;5034337;28;20492;-74
2021/08/08 10:26:30;;;;;;;;;;;23.70;55.00;;;;;;5034950;28;20278;-77
2021/08/08 10:28:58;;;;;;;;;;;24.10;53.40;;;;;;5034570;28;19983;-76
2021/08/08 10:31:25;;;;;;;;;;;24.30;50.70;;;;;;5034361;28;19933;-76
2021/08/08 10:33:55;;;;;;;;;;;24.40;50.70;;;;;;5015832;28;19925;-75
2021/08/08 10:36:22;;;;;;;;;;;24.40;50.20;;;;;;5034839;28;19931;-75
2021/08/08 10:38:50;;;;;;;;;;;24.30;49.20;;;;;;5034088;28;19929;-76
2021/08/08 10:41:16;;;;;;;;;;;24.10;48.30;;;;;;5032453;28;19925;-73
2021/08/08 10:43:46;;;;;;;;;;;23.90;49.10;;;;;;5034491;28;19933;-75
2021/08/08 10:46:14;;;;;;;;;;;23.70;49.90;;;;;;5034492;28;19936;-76
2021/08/08 10:48:42;;;;;;;;;;;23.40;49.60;;;;;;5033815;28;19925;-75
2021/08/08 10:51:18;;;;;;;;;;;22.90;50.00;;;;;;5034047;28;19932;-73
2021/08/08 10:53:57;;;;;;;;;;;22.50;50.90;;;;;;5023047;28;19925;-73
2021/08/08 10:56:24;;;;;;;;;;;22.30;52.10;;;;;;5034037;28;20355;-73
2021/08/08 10:58:51;;;;;;;;;;;22.00;52.80;;;;;;5034143;28;19952;-73
2021/08/08 11:01:18;;;;;;;;;;;21.90;53.70;;;;;;5033610;28;19956;-77
2021/08/08 11:03:51;;;;;;;;;;;21.70;53.20;;;;;;5033094;28;19925;-79
2021/08/08 11:06:20;;;;;;;;;;;21.50;53.60;;;;;;5022062;28;19952;-81
2021/08/08 11:08:50;;;;;;;;;;;21.40;53.20;;;;;;5033257;28;19926;-74
2021/08/08 11:11:16;;;;;;;;;;;21.20;53.30;;;;;;5016038;28;19925;-73
2021/08/08 11:13:43;;;;;;;;;;;21.10;52.70;;;;;;5033775;28;20020;-74
2021/08/08 11:16:13;;;;;;;;;;;21.00;53.70;;;;;;5034312;28;19925;-73
2021/08/08 11:18:40;;;;;;;;;;;21.10;54.20;;;;;;5032673;28;19933;-74
2021/08/08 11:21:13;;;;;;;;;;;21.20;52.70;;;;;;5033645;28;20016;-74
2021/08/08 11:23:39;;;;;;;;;;;21.30;52.80;;;;;;5032166;28;20023;-74
2021/08/08 11:26:05;;;;;;;;;;;21.50;52.20;;;;;;5033085;28;19932;-74
2021/08/08 11:28:32;;;;;;;;;;;21.50;51.20;;;;;;5016186;28;19925;-74
2021/08/08 11:30:58;;;;;;;;;;;21.60;51.90;;;;;;5033732;28;19925;-74
2021/08/08 11:33:26;;;;;;;;;;;21.70;52.30;;;;;;5034199;28;19929;-74
2021/08/08 11:36:00;;;;;;;;;;;21.70;52.30;;;;;;5034063;28;19925;-74
2021/08/08 11:38:30;;;;;;;;;;;21.80;52.20;;;;;;5034458;28;19929;-74
2021/08/08 11:40:57;;;;;;;;;;;21.80;51.40;;;;;;5034107;28;19925;-74
2021/08/08 11:43:28;;;;;;;;;;;21.80;51.50;;;;;;5033686;28;19929;-73
2021/08/08 11:45:57;;;;;;;;;;;21.60;50.40;;;;;;5033646;28;20016;-74
2021/08/08 11:48:27;;;;;;;;;;;21.50;51.70;;;;;;5048846;28;19929;-73
2021/08/08 11:50:57;;;;;;;;;;;21.40;52.10;;;;;;5033597;28;19929;-73
2021/08/08 11:53:32;;;;;;;;;;;21.20;52.10;;;;;;5032026;28;19929;-74
2021/08/08 11:56:15;;;;;;;;;;;21.30;53.20;;;;;;5032679;28;19925;-73
2021/08/08 11:58:43;;;;;;;;;;;21.30;53.00;;;;;;5032200;28;19948;-73
2021/08/08 12:01:11;;;;;;;;;;;21.30;53.80;;;;;;5032491;28;20422;-72
2021/08/08 12:03:38;;;;;;;;;;;21.40;54.30;;;;;;5032542;28;19980;-74
2021/08/08 12:06:04;;;;;;;;;;;21.40;54.00;;;;;;5032175;28;19929;-73
2021/08/08 12:08:32;;;;;;;;;;;21.40;54.30;;;;;;5031204;28;20012;-73
2021/08/08 12:11:00;;;;;;;;;;;21.40;53.80;;;;;;5014345;28;20299;-73
2021/08/08 12:13:27;;;;;;;;;;;21.30;54.30;;;;;;5032053;28;20377;-73
2021/08/08 12:15:54;;;;;;;;;;;21.30;54.70;;;;;;5032184;28;19929;-73
2021/08/08 12:18:30;;;;;;;;;;;21.20;55.00;;;;;;5032891;28;19983;-73
2021/08/08 12:21:00;;;;;;;;;;;21.20;55.10;;;;;;5032336;28;19948;-72
2021/08/08 12:23:27;;;;;;;;;;;21.10;55.30;;;;;;5031684;28;19929;-77
2021/08/08 12:25:58;;;;;;;;;;;21.00;56.10;;;;;;5033544;28;19928;-75
2021/08/08 12:28:26;;;;;;;;;;;20.90;57.30;;;;;;5033516;28;19925;-76
2021/08/08 12:31:03;;;;;;;;;;;20.70;58.20;;;;;;5034035;28;20408;-75
2021/08/08 12:33:30;;;;;;;;;;;20.60;60.30;;;;;;5032253;28;19925;-74
2021/08/08 12:36:07;;;;;;;;;;;20.50;61.60;;;;;;5032887;28;19929;-72
2021/08/08 12:38:44;;;;;;;;;;;20.50;61.60;;;;;;5033577;28;19925;-73
2021/08/08 12:41:11;;;;;;;;;;;20.60;61.40;;;;;;5034020;28;19974;-73
2021/08/08 12:43:39;;;;;;;;;;;20.70;61.40;;;;;;5031510;28;19948;-74
2021/08/08 21:17:11;;;;;;;;;;;17.30;76.00;;;;;;5077745;27;19973;-72
2021/08/08 21:19:42;;;;;;;;;;;17.20;77.50;;;;;;5056852;27;19936;-74
2021/08/08 21:22:09;;;;;;;;;;;17.30;77.10;;;;;;5056866;27;19932;-74
2021/08/08 21:24:36;;;;;;;;;;;17.50;76.40;;;;;;5063879;27;19935;-74
2021/08/08 21:27:03;;;;;;;;;;;17.60;75.70;;;;;;5063316;27;19993;-74
2021/08/08 21:29:29;;;;;;;;;;;17.80;75.30;;;;;;5050639;27;19929;-74
2021/08/08 21:31:55;;;;;;;;;;;17.90;74.80;;;;;;5065858;27;20379;-74
2021/08/08 21:34:21;;;;;;;;;;;17.90;74.40;;;;;;5076695;27;19999;-74
2021/08/08 21:36:48;;;;;;;;;;;18.00;74.30;;;;;;5049121;27;19933;-74
2021/08/08 21:39:14;;;;;;;;;;;18.00;74.10;;;;;;5065664;27;19924;-74
2021/08/08 21:41:41;;;;;;;;;;;18.00;74.00;;;;;;5059759;27;20003;-75
2021/08/08 21:44:08;;;;;;;;;;;18.00;73.90;;;;;;5062034;28;20393;-74
2021/08/08 21:46:34;;;;;;;;;;;18.10;73.80;;;;;;5080010;27;19932;-74
2021/08/08 21:49:01;;;;;;;;;;;18.10;73.70;;;;;;5081598;27;19949;-74
2021/08/08 21:51:27;;;;;;;;;;;18.10;73.50;;;;;;5049809;27;19981;-74
2021/08/08 21:53:54;;;;;;;;;;;18.20;73.80;;;;;;5071929;28;19925;-74
2021/08/08 21:56:21;;;;;;;;;;;18.10;73.80;;;;;;5061192;27;20288;-74
2021/08/08 21:58:47;;;;;;;;;;;18.10;74.00;;;;;;5050312;28;20047;-73
2021/08/08 22:01:14;;;;;;;;;;;18.10;74.20;;;;;;5062791;27;19953;-73
2021/08/08 22:03:41;;;;;;;;;;;18.10;74.20;;;;;;5068947;27;19977;-73
2021/08/08 22:06:08;;;;;;;;;;;18.10;74.20;;;;;;5066924;27;19924;-74
2021/08/08 22:08:34;;;;;;;;;;;18.10;74.20;;;;;;5068849;27;19924;-73
2021/08/08 22:11:00;;;;;;;;;;;18.10;74.10;;;;;;5067125;27;20027;-73
2021/08/08 22:13:28;;;;;;;;;;;18.10;74.00;;;;;;5068561;27;19925;-74
2021/08/08 22:15:54;;;;;;;;;;;18.20;74.10;;;;;;5066800;27;19929;-73
2021/08/08 22:18:20;;;;;;;;;;;18.20;74.20;;;;;;5067132;27;19929;-73
2021/08/08 22:20:47;;;;;;;;;;;18.20;74.10;;;;;;5068645;27;19928;-73
2021/08/08 22:23:13;;;;;;;;;;;18.20;74.20;;;;;;5066759;27;19928;-73
2021/08/08 22:25:39;;;;;;;;;;;18.20;74.20;;;;;;5068704;27;20401;-73
2021/08/08 22:28:06;;;;;;;;;;;18.20;74.20;;;;;;5056053;27;19935;-73
2021/08/08 22:30:32;;;;;;;;;;;18.20;74.40;;;;;;5055502;27;19931;-73
2021/08/08 22:32:58;;;;;;;;;;;18.20;74.30;;;;;;5053328;27;19925;-73
2021/08/08 22:35:27;;;;;;;;;;;18.20;74.50;;;;;;5053575;27;19928;-73
2021/08/08 22:37:54;;;;;;;;;;;18.20;74.50;;;;;;5054020;27;19936;-73
2021/08/08 22:40:20;;;;;;;;;;;18.20;74.60;;;;;;5053246;27;19936;-73
2021/08/08 22:42:48;;;;;;;;;;;18.10;74.50;;;;;;5068157;27;19978;-73
2021/08/08 22:45:15;;;;;;;;;;;18.20;74.40;;;;;;5070881;27;19925;-73
2021/08/08 22:47:42;;;;;;;;;;;18.20;74.50;;;;;;5070606;27;20015;-73
2021/08/08 22:50:08;;;;;;;;;;;18.10;74.50;;;;;;5070732;27;20005;-73
2021/08/08 22:52:35;;;;;;;;;;;18.10;74.70;;;;;;5071229;27;20383;-74
2021/08/08 22:55:03;;;;;;;;;;;18.10;74.70;;;;;;5070993;27;19925;-73
2021/08/08 22:57:29;;;;;;;;;;;18.10;74.80;;;;;;5071334;27;19967;-73
2021/08/08 22:59:56;;;;;;;;;;;18.10;75.00;;;;;;5065584;27;19932;-73
2021/08/08 23:02:22;;;;;;;;;;;18.00;75.30;;;;;;5071073;27;19969;-73
2021/08/08 23:04:48;;;;;;;;;;;18.00;75.70;;;;;;5070821;27;19936;-73
2021/08/08 23:07:14;;;;;;;;;;;17.80;76.00;;;;;;5070433;27;20326;-73
2021/08/08 23:09:41;;;;;;;;;;;17.80;76.20;;;;;;5071324;27;19924;-73
2021/08/08 23:12:07;;;;;;;;;;;17.80;76.10;;;;;;5070854;27;19932;-73
2021/08/08 23:14:35;;;;;;;;;;;17.90;76.20;;;;;;5070886;27;20399;-73
2021/08/08 23:17:02;;;;;;;;;;;17.90;76.20;;;;;;5058341;27;19924;-73
2021/08/08 23:19:28;;;;;;;;;;;17.90;76.70;;;;;;5070813;27;19928;-73